createdAt,value
2022-09-02T00:02:05.352Z,2.30
2022-09-02T00:07:10.752Z,2.08
2022-09-02T00:12:16.240Z,2.30
2022-09-02T00:17:19.826Z,2.30
2022-09-02T00:22:23.987Z,2.30
2022-09-02T00:27:29.751Z,2.30
2022-09-02T00:32:34.150Z,2.33
2022-09-02T00:37:39.837Z,2.00
2022-09-02T00:42:45.862Z,2.70
2022-09-02T00:47:51.870Z,2.38
2022-09-02T00:53:00.062Z,2.58
2022-09-02T00:58:09.555Z,2.58
2022-09-02T01:03:20.666Z,3.20
2022-09-02T01:08:27.182Z,3.10
2022-09-02T01:13:36.390Z,2.83
2022-09-02T01:18:41.761Z,3.33
2022-09-02T01:23:50.277Z,2.72
2022-09-02T01:28:54.336Z,2.47
2022-09-02T01:33:59.889Z,2.63
2022-09-02T01:39:06.590Z,2.60
2022-09-02T01:44:12.383Z,2.83
2022-09-02T01:49:20.680Z,3.13
2022-09-02T01:54:25.345Z,3.00
2022-09-02T01:59:28.982Z,3.20
2022-09-02T02:04:33.541Z,3.10
2022-09-02T02:09:38.491Z,3.08
2022-09-02T02:14:43.205Z,3.38
2022-09-02T02:19:46.422Z,3.45
2022-09-02T02:24:51.226Z,3.53
2022-09-02T02:29:55.137Z,2.55
2022-09-02T02:34:58.433Z,2.83
2022-09-02T02:40:03.722Z,2.97
2022-09-02T02:45:14.965Z,2.90
2022-09-02T02:50:20.246Z,3.13
2022-09-02T02:55:27.158Z,2.70
2022-09-02T03:00:34.513Z,2.90
2022-09-02T03:05:40.014Z,2.70
2022-09-02T03:10:45.186Z,2.78
2022-09-02T03:15:49.060Z,2.97
2022-09-02T03:20:52.825Z,2.85
2022-09-02T03:26:01.608Z,2.65
2022-09-02T03:31:05.463Z,2.53
2022-09-02T03:36:09.244Z,2.30
2022-09-02T03:41:14.135Z,2.08
2022-09-02T03:46:19.850Z,2.47
2022-09-02T03:51:25.692Z,2.25
2022-09-02T03:56:30.317Z,2.15
2022-09-02T04:01:34.573Z,2.40
2022-09-02T04:06:38.772Z,2.13
2022-09-02T04:11:43.500Z,2.08
2022-09-02T04:16:51.120Z,2.05
2022-09-02T04:21:54.479Z,2.30
2022-09-02T04:27:03.461Z,2.40
2022-09-02T04:32:07.901Z,2.53
2022-09-02T04:37:13.353Z,3.00
2022-09-02T04:42:18.067Z,2.55
2022-09-02T04:47:24.630Z,2.78
2022-09-02T04:52:27.910Z,2.50
2022-09-02T04:57:32.972Z,3.28
2022-09-02T05:02:36.351Z,2.97
2022-09-02T05:07:44.581Z,2.72
2022-09-02T05:12:50.335Z,3.10
2022-09-02T05:17:54.136Z,2.80
2022-09-02T05:22:57.849Z,2.75
2022-09-02T05:28:02.614Z,3.42
2022-09-02T05:33:06.168Z,3.08
2022-09-02T05:38:09.894Z,2.92
2022-09-02T05:43:14.873Z,2.72
2022-09-02T05:48:35.702Z,2.47
2022-09-02T05:53:39.169Z,2.50
2022-09-02T05:58:43.999Z,2.70
2022-09-02T06:03:47.620Z,2.50
2022-09-02T06:08:51.768Z,2.78
2022-09-02T06:13:56.473Z,2.03
2022-09-02T06:19:01.165Z,2.08
2022-09-02T06:24:07.341Z,1.75
2022-09-02T06:29:12.305Z,1.90
2022-09-02T06:34:16.563Z,1.60
2022-09-02T06:39:22.369Z,1.20
2022-09-02T06:44:27.060Z,1.02
2022-09-02T06:49:30.423Z,1.30
2022-09-02T06:54:34.050Z,1.35
2022-09-02T06:59:39.784Z,1.20
2022-09-02T07:05:00.715Z,1.30
2022-09-02T07:10:04.990Z,1.20
2022-09-02T07:15:10.900Z,1.30
2022-09-02T07:20:14.297Z,1.02
2022-09-02T07:25:18.969Z,1.48
2022-09-02T07:30:24.721Z,1.17
2022-09-02T07:35:28.356Z,1.33
2022-09-02T07:40:32.037Z,1.02
2022-09-02T07:45:37.789Z,0.88
2022-09-02T07:50:41.047Z,0.90
2022-09-02T07:55:44.551Z,1.10
2022-09-02T08:00:49.988Z,1.20
2022-09-02T08:05:53.805Z,1.10
2022-09-02T08:10:58.270Z,1.10
2022-09-02T08:16:03.351Z,1.30
2022-09-02T08:21:07.913Z,1.17
2022-09-02T08:26:11.351Z,1.25
2022-09-02T08:31:16.568Z,1.30
2022-09-02T08:36:21.213Z,1.38
2022-09-02T08:41:28.643Z,1.20
2022-09-02T08:46:36.056Z,1.27
2022-09-02T08:51:45.296Z,1.20
2022-09-02T08:56:48.795Z,1.10
2022-09-02T09:02:02.668Z,1.20
2022-09-02T09:07:18.623Z,0.98
2022-09-02T09:12:32.596Z,1.23
2022-09-02T09:17:44.276Z,0.95
2022-09-02T09:22:49.707Z,0.80
2022-09-02T09:27:53.038Z,1.10
2022-09-02T09:33:00.034Z,0.65
2022-09-02T09:38:16.657Z,0.60
2022-09-02T09:43:19.854Z,0.93
2022-09-02T09:48:27.996Z,1.00
2022-09-02T09:53:34.168Z,0.85
2022-09-02T09:58:45.695Z,1.00
2022-09-02T10:03:53.658Z,1.02
2022-09-02T10:08:58.842Z,1.02
2022-09-02T10:14:03.623Z,1.00
2022-09-02T10:19:16.573Z,1.08
2022-09-02T10:24:38.468Z,1.20
2022-09-02T10:29:54.039Z,1.30
2022-09-02T10:35:08.529Z,1.00
2022-09-02T10:40:15.293Z,1.30
2022-09-02T10:45:25.920Z,1.20
2022-09-02T10:50:40.579Z,1.30
2022-09-02T10:55:54.761Z,1.23
2022-09-02T11:00:59.296Z,1.30
2022-09-02T11:06:10.557Z,1.05
2022-09-02T11:11:21.466Z,1.08
2022-09-02T11:16:29.097Z,1.00
2022-09-02T11:21:48.139Z,1.20
2022-09-02T11:26:58.693Z,0.98
2022-09-02T11:32:08.552Z,1.63
2022-09-02T11:37:19.798Z,1.15
2022-09-02T11:42:45.035Z,1.30
2022-09-02T11:48:29.587Z,1.90
2022-09-02T11:53:39.423Z,1.48
2022-09-02T11:58:46.995Z,1.05
2022-09-02T12:04:39.806Z,1.50
2022-09-02T12:09:45.817Z,1.30
2022-09-02T12:15:11.775Z,1.50
2022-09-02T12:20:51.475Z,1.10
2022-09-02T12:26:06.956Z,1.50
2022-09-02T12:31:16.016Z,1.30
2022-09-02T12:36:47.040Z,1.30
2022-09-02T12:41:57.854Z,1.48
2022-09-02T12:47:07.430Z,1.30
2022-09-02T12:52:12.266Z,1.48
2022-09-02T12:57:18.418Z,1.30
2022-09-02T13:02:43.212Z,1.40
2022-09-02T13:08:31.175Z,1.30
2022-09-02T13:14:23.701Z,1.23
2022-09-02T13:19:52.302Z,1.00
2022-09-02T13:25:13.253Z,1.25
2022-09-02T13:30:22.547Z,1.13
2022-09-02T13:35:29.441Z,1.20
2022-09-02T13:40:35.011Z,1.05
2022-09-02T13:45:39.909Z,1.30
2022-09-02T13:50:45.570Z,1.15
2022-09-02T13:55:51.951Z,1.08
2022-09-02T14:06:24.792Z,1.33
2022-09-02T14:11:29.281Z,1.50
2022-09-02T14:16:36.441Z,1.20
2022-09-02T14:21:47.381Z,1.20
2022-09-02T14:26:54.105Z,1.10
2022-09-02T14:32:26.475Z,1.02
2022-09-02T14:37:31.767Z,1.20
2022-09-02T14:42:52.720Z,1.15
2022-09-02T14:48:03.853Z,1.00
2022-09-02T14:53:11.422Z,1.00
2022-09-02T14:58:16.222Z,1.05
2022-09-02T15:03:27.147Z,1.30
2022-09-02T15:08:30.516Z,1.20
2022-09-02T15:13:35.008Z,1.20
2022-09-02T15:18:39.787Z,1.27
2022-09-02T15:23:46.716Z,0.95
2022-09-02T15:28:55.215Z,1.08
2022-09-02T15:34:02.191Z,0.90
2022-09-02T15:39:06.089Z,1.00
2022-09-02T15:44:09.431Z,1.30
2022-09-02T15:49:16.541Z,1.00
2022-09-02T15:54:22.684Z,0.98
2022-09-02T15:59:27.526Z,1.02
2022-09-02T16:04:32.162Z,1.38
2022-09-02T16:09:35.660Z,0.90
2022-09-02T16:14:39.744Z,1.08
2022-09-02T16:19:51.695Z,1.10
2022-09-02T16:24:54.993Z,0.90
2022-09-02T16:30:01.422Z,0.88
2022-09-02T16:35:07.118Z,0.77
2022-09-02T16:40:11.292Z,1.08
2022-09-02T16:45:15.162Z,1.05
2022-09-02T16:50:20.249Z,0.90
2022-09-02T16:55:23.483Z,1.10
2022-09-02T17:00:27.057Z,0.80
2022-09-02T17:05:31.849Z,0.77
2022-09-02T17:10:36.298Z,0.90
2022-09-02T17:15:39.653Z,0.93
2022-09-02T17:20:45.307Z,0.70
2022-09-02T17:25:48.794Z,0.70
2022-09-02T17:30:52.885Z,1.20
2022-09-02T17:35:58.667Z,1.10
2022-09-02T17:41:25.862Z,1.27
2022-09-02T17:46:29.221Z,1.90
2022-09-02T17:51:35.531Z,1.92
2022-09-02T17:57:13.072Z,1.02
2022-09-02T18:02:39.169Z,1.05
2022-09-02T18:07:51.113Z,1.23
2022-09-02T18:12:54.435Z,1.42
2022-09-02T18:18:00.878Z,1.30
2022-09-02T18:23:26.369Z,1.08
2022-09-02T18:28:46.279Z,1.30
2022-09-02T18:34:05.540Z,1.25
2022-09-02T18:39:37.821Z,1.30
2022-09-02T18:44:48.475Z,1.20
2022-09-02T18:49:55.723Z,0.93
2022-09-02T18:55:14.106Z,1.30
2022-09-02T19:00:19.976Z,1.13
2022-09-02T19:05:26.985Z,1.00
2022-09-02T19:10:32.627Z,0.93
2022-09-02T19:15:36.746Z,1.00
2022-09-02T19:20:41.373Z,1.02
2022-09-02T19:25:46.355Z,1.13
2022-09-02T19:30:50.410Z,1.05
2022-09-02T19:35:54.081Z,0.98
2022-09-02T19:40:59.276Z,1.15
2022-09-02T19:46:03.732Z,0.90
2022-09-02T19:51:14.223Z,1.00
2022-09-02T19:56:20.783Z,0.93
2022-09-02T20:01:24.247Z,1.10
2022-09-02T20:06:28.703Z,0.73
2022-09-02T20:11:34.493Z,0.90
2022-09-02T20:16:41.017Z,1.13
2022-09-02T20:21:45.996Z,0.93
2022-09-02T20:26:59.576Z,0.90
2022-09-02T20:32:09.670Z,0.80
2022-09-02T20:37:22.514Z,1.02
2022-09-02T20:42:54.386Z,0.90
2022-09-02T20:48:25.410Z,1.05
2022-09-02T20:53:41.865Z,0.85
2022-09-02T20:58:53.168Z,1.05
2022-09-02T21:04:04.491Z,0.88
2022-09-02T21:09:16.567Z,1.00
2022-09-02T21:14:27.331Z,0.70
2022-09-02T21:19:36.525Z,0.70
2022-09-02T21:24:47.252Z,1.00
2022-09-02T21:30:02.308Z,1.00
2022-09-02T21:35:12.749Z,0.70
2022-09-02T21:40:19.228Z,0.70
2022-09-02T21:45:41.946Z,0.90
2022-09-02T21:50:58.294Z,0.75
2022-09-02T21:56:16.371Z,0.65
2022-09-02T22:01:42.234Z,0.93
2022-09-02T22:07:01.389Z,0.80
2022-09-02T22:12:14.754Z,1.10
2022-09-02T22:17:30.946Z,0.73
2022-09-02T22:22:39.023Z,0.73
2022-09-02T22:27:50.847Z,0.50
2022-09-02T22:33:07.100Z,0.60
2022-09-02T22:38:16.853Z,0.70
2022-09-02T22:43:24.863Z,0.65
2022-09-02T22:49:09.961Z,0.65
2022-09-02T22:54:13.265Z,0.88
2022-09-02T22:59:35.813Z,0.70
2022-09-02T23:04:57.941Z,0.70
2022-09-02T23:10:02.377Z,0.85
2022-09-02T23:15:18.135Z,0.55
2022-09-02T23:20:28.610Z,0.40
2022-09-02T23:25:56.710Z,0.63
2022-09-02T23:31:17.931Z,0.88
2022-09-02T23:36:35.297Z,0.68
2022-09-02T23:41:39.027Z,0.90
2022-09-02T23:46:54.745Z,0.65
2022-09-02T23:52:10.537Z,0.90
2022-09-02T23:57:29.904Z,1.08
